Armonk, New York
Current Conditions -  °F | °C
As of 10:56 AM on Monday 26 Jan 2015 (Local Time) from KHPN Reporting Station
Light Snow Light Snow  
Wind Chill:   Ceiling: 800
Heat Index: 19°   Visibility: 1.5mi
Dew Point: 11°   Wind: 15mph
Humidity: 71%   Direction: 60°ENE
Pressure: 29.97"   Gusts: 20mph
Location:  41.13°N, 73.71°W
Report Text: KHPN 261556Z 06013G17KT 1 1/2SM -SN BR BKN008 OVC010 M07/M12 A2997 RMK AO2 SLP162 P0000 T10721117 $
Loading
Personal Weather Stations






























Interactive Weather Map New forecast layout! Learn more

10-Day Weather Forecast

Advertisements
Track Severe Weather on mobile